createdAt,value
2019-05-14T00:00:46.685Z,7.81
2019-05-14T00:01:46.684Z,7.81
2019-05-14T00:02:46.746Z,7.87
2019-05-14T00:03:46.708Z,7.87
2019-05-14T00:04:46.678Z,7.86
2019-05-14T00:05:46.648Z,7.94
2019-05-14T00:06:46.630Z,8.01
2019-05-14T00:07:46.641Z,7.94
2019-05-14T00:08:46.661Z,8.02
2019-05-14T00:09:46.630Z,7.87
2019-05-14T00:10:46.601Z,7.94
2019-05-14T00:11:46.552Z,7.88
2019-05-14T00:12:46.565Z,7.91
2019-05-14T00:13:46.587Z,7.86
2019-05-14T00:14:46.570Z,7.92
2019-05-14T00:15:46.554Z,7.92
2019-05-14T00:16:46.526Z,7.92
2019-05-14T00:17:46.542Z,7.92
2019-05-14T00:18:46.548Z,7.92
2019-05-14T00:19:46.518Z,7.83
2019-05-14T00:20:46.499Z,7.83
2019-05-14T00:21:46.474Z,7.84
2019-05-14T00:22:46.477Z,7.84
2019-05-14T00:23:46.536Z,7.84
2019-05-14T00:24:46.457Z,7.83
2019-05-14T00:25:46.410Z,7.88
2019-05-14T00:26:46.402Z,7.83
2019-05-14T00:27:46.371Z,7.81
2019-05-14T00:28:46.427Z,7.81
2019-05-14T00:29:46.415Z,7.71
2019-05-14T00:30:46.354Z,7.78
2019-05-14T00:31:46.364Z,7.77
2019-05-14T00:32:46.332Z,7.76
2019-05-14T00:33:46.397Z,7.76
2019-05-14T00:34:46.315Z,7.66
2019-05-14T00:35:46.309Z,7.66
2019-05-14T00:36:46.295Z,7.64
2019-05-14T00:37:46.286Z,7.61
2019-05-14T00:38:46.266Z,7.66
2019-05-14T00:39:46.292Z,7.68
2019-05-14T00:40:46.258Z,7.66
2019-05-14T00:41:46.253Z,7.66
2019-05-14T00:42:46.229Z,7.58
2019-05-14T00:43:46.221Z,7.55
2019-05-14T00:44:54.384Z,7.52
2019-05-14T00:45:47.201Z,7.54
2019-05-14T00:46:46.168Z,7.47
2019-05-14T00:47:46.185Z,7.55
2019-05-14T00:48:46.194Z,7.47
2019-05-14T00:49:46.134Z,7.44
2019-05-14T00:50:46.176Z,7.50
2019-05-14T00:51:46.156Z,7.49
2019-05-14T00:52:46.502Z,7.44
2019-05-14T00:53:46.136Z,7.46
2019-05-14T00:54:46.212Z,7.40
2019-05-14T00:55:46.115Z,7.42
2019-05-14T00:56:46.077Z,7.26
2019-05-14T00:57:46.118Z,7.26
2019-05-14T00:58:46.079Z,7.15
2019-05-14T00:59:46.050Z,7.19
2019-05-14T01:00:46.056Z,7.26
2019-05-14T01:01:46.052Z,7.16
2019-05-14T01:02:46.024Z,7.16
2019-05-14T01:03:46.001Z,7.18
2019-05-14T01:04:46.036Z,7.22
2019-05-14T01:05:45.997Z,7.19
2019-05-14T01:06:45.972Z,7.18
2019-05-14T01:07:45.956Z,7.24
2019-05-14T01:08:45.960Z,7.16
2019-05-14T01:09:45.999Z,7.26
2019-05-14T01:10:45.915Z,7.15
2019-05-14T01:11:45.935Z,7.08
2019-05-14T01:12:45.950Z,7.13
2019-05-14T01:13:45.927Z,7.21
2019-05-14T01:14:45.918Z,7.13
2019-05-14T01:15:45.879Z,7.19
2019-05-14T01:16:45.849Z,7.15
2019-05-14T01:17:45.851Z,7.18
2019-05-14T01:18:45.815Z,7.10
2019-05-14T01:19:45.887Z,7.10
2019-05-14T01:20:45.845Z,7.00
2019-05-14T01:21:45.822Z,7.06
2019-05-14T01:22:45.821Z,7.13
2019-05-14T01:23:45.796Z,7.13
2019-05-14T01:24:45.830Z,7.01
2019-05-14T01:25:45.766Z,7.03
2019-05-14T01:26:45.779Z,7.10
2019-05-14T01:27:45.727Z,7.06
2019-05-14T01:28:45.728Z,7.15
2019-05-14T01:29:45.718Z,7.18
2019-05-14T01:30:45.747Z,7.13
2019-05-14T01:31:45.675Z,7.19
2019-05-14T01:32:45.680Z,7.22
2019-05-14T01:33:45.673Z,7.13
2019-05-14T01:34:45.650Z,7.19
2019-05-14T01:35:45.687Z,7.18
2019-05-14T01:36:45.632Z,7.15
2019-05-14T01:37:45.645Z,7.19
2019-05-14T01:38:45.614Z,7.18
2019-05-14T01:39:45.636Z,7.10
2019-05-14T01:40:45.626Z,7.13
2019-05-14T01:41:45.576Z,7.16
2019-05-14T01:42:45.577Z,7.15
2019-05-14T01:43:45.575Z,7.10
2019-05-14T01:44:45.547Z,7.10
2019-05-14T01:45:45.570Z,7.10
2019-05-14T01:46:45.528Z,7.15
2019-05-14T01:47:45.517Z,7.06
2019-05-14T01:48:45.510Z,7.01
2019-05-14T01:49:45.489Z,7.08
2019-05-14T01:50:45.581Z,7.01
2019-05-14T01:51:45.472Z,7.10
2019-05-14T01:52:45.494Z,7.01
2019-05-14T01:53:45.460Z,7.00
2019-05-14T01:54:45.445Z,6.96
2019-05-14T01:55:45.498Z,7.00
2019-05-14T01:56:45.411Z,6.93
2019-05-14T01:57:45.413Z,6.85
2019-05-14T01:58:45.427Z,6.86
2019-05-14T01:59:45.397Z,6.81
2019-05-14T02:00:45.395Z,6.83
2019-05-14T02:01:45.399Z,6.82
2019-05-14T02:02:45.379Z,6.83
2019-05-14T02:03:45.337Z,6.74
2019-05-14T02:04:45.415Z,6.74
2019-05-14T02:05:45.326Z,6.61
2019-05-14T02:06:45.298Z,6.68
2019-05-14T02:07:45.320Z,6.65
2019-05-14T02:08:45.404Z,6.60
2019-05-14T02:09:45.304Z,6.67
2019-05-14T02:10:45.276Z,6.68
2019-05-14T02:11:45.254Z,6.63
2019-05-14T02:12:45.244Z,6.68
2019-05-14T02:13:48.359Z,6.70
2019-05-14T02:14:45.255Z,6.56
2019-05-14T02:15:45.277Z,6.52
2019-05-14T02:16:45.212Z,6.53
2019-05-14T02:17:45.187Z,6.43
2019-05-14T02:18:45.199Z,6.45
2019-05-14T02:19:45.188Z,6.40
2019-05-14T02:20:45.211Z,6.42
2019-05-14T02:21:45.172Z,6.42
2019-05-14T02:22:45.139Z,6.40
2019-05-14T02:23:45.104Z,6.35
2019-05-14T02:24:45.141Z,6.32
2019-05-14T02:25:45.150Z,6.31
2019-05-14T02:26:45.119Z,6.37
2019-05-14T02:27:45.082Z,6.37
2019-05-14T02:28:45.095Z,6.27
2019-05-14T02:29:45.082Z,6.31
2019-05-14T02:30:56.024Z,6.35
2019-05-14T02:31:46.064Z,6.31
2019-05-14T02:32:45.038Z,6.34
2019-05-14T02:33:45.047Z,6.34
2019-05-14T02:34:45.010Z,6.32
2019-05-14T02:35:45.061Z,6.31
2019-05-14T02:36:45.011Z,6.21
2019-05-14T02:37:45.002Z,6.28
2019-05-14T02:38:44.994Z,6.15
2019-05-14T02:39:44.989Z,6.09
2019-05-14T02:40:45.024Z,6.08
2019-05-14T02:41:44.963Z,6.06
2019-05-14T02:42:44.952Z,6.06
2019-05-14T02:43:44.944Z,6.00
2019-05-14T02:44:44.948Z,5.91
2019-05-14T02:46:00.596Z,5.95
2019-05-14T02:46:45.960Z,5.93
2019-05-14T02:47:44.867Z,5.87
2019-05-14T02:48:44.847Z,5.80
2019-05-14T02:49:44.868Z,5.75
2019-05-14T02:50:44.859Z,5.69
2019-05-14T02:51:44.819Z,5.67
2019-05-14T02:52:44.863Z,5.65
2019-05-14T02:53:44.815Z,5.61
2019-05-14T02:54:44.811Z,5.62
2019-05-14T02:55:44.855Z,5.59
2019-05-14T02:56:44.779Z,5.57
2019-05-14T02:57:44.781Z,5.57
2019-05-14T02:58:44.743Z,5.57
2019-05-14T02:59:44.752Z,5.51
2019-05-14T03:02:00.845Z,5.55
2019-05-14T03:03:00.808Z,5.58
2019-05-14T03:04:00.807Z,5.58
2019-05-14T03:05:00.800Z,5.50
2019-05-14T03:06:00.951Z,5.55
2019-05-14T03:07:00.776Z,5.54
2019-05-14T03:08:00.807Z,5.58
2019-05-14T03:09:00.736Z,5.57
2019-05-14T03:10:00.726Z,5.59
2019-05-14T03:11:00.827Z,5.54
2019-05-14T03:12:00.706Z,5.59
2019-05-14T03:13:00.761Z,5.54
2019-05-14T03:14:00.679Z,5.55
2019-05-14T03:15:00.671Z,5.50
2019-05-14T03:16:19.042Z,5.55
2019-05-14T03:17:01.649Z,5.52
2019-05-14T03:18:00.655Z,5.54
2019-05-14T03:19:00.631Z,5.59
2019-05-14T03:20:00.633Z,5.52
2019-05-14T03:21:01.071Z,5.41
2019-05-14T03:22:00.617Z,5.51
2019-05-14T03:23:08.055Z,5.50
2019-05-14T03:24:01.560Z,5.41
2019-05-14T03:25:00.565Z,5.47
2019-05-14T03:26:01.041Z,5.43
2019-05-14T03:27:00.570Z,5.43
2019-05-14T03:28:00.564Z,5.39
2019-05-14T03:29:00.537Z,5.47
2019-05-14T03:30:01.098Z,5.44
2019-05-14T03:31:03.058Z,5.37
2019-05-14T03:32:03.097Z,5.40
2019-05-14T03:33:02.706Z,5.48
2019-05-14T03:34:02.905Z,5.41
2019-05-14T03:35:04.016Z,5.50
2019-05-14T03:36:08.234Z,5.41
2019-05-14T03:37:03.122Z,5.51
2019-05-14T03:38:00.738Z,5.50
2019-05-14T03:39:00.412Z,5.52
2019-05-14T03:40:00.420Z,5.58
2019-05-14T03:41:00.697Z,5.55
2019-05-14T03:42:00.445Z,5.62
2019-05-14T03:43:00.370Z,5.59
2019-05-14T03:44:00.426Z,5.62
2019-05-14T03:45:00.341Z,5.65
2019-05-14T03:46:00.358Z,5.59
2019-05-14T03:47:04.750Z,5.73
2019-05-14T03:48:01.387Z,5.67
2019-05-14T03:49:00.453Z,5.70
2019-05-14T03:50:00.302Z,5.72
2019-05-14T03:51:00.679Z,5.79
2019-05-14T03:52:00.690Z,5.77
2019-05-14T03:53:00.295Z,5.70
2019-05-14T03:54:06.652Z,5.73
2019-05-14T03:55:04.610Z,5.75
2019-05-14T03:56:00.340Z,5.76
2019-05-14T03:57:00.621Z,5.69
2019-05-14T03:58:00.206Z,5.80
2019-05-14T03:59:00.415Z,5.79
2019-05-14T04:00:00.226Z,5.80
2019-05-14T04:01:00.705Z,5.82
2019-05-14T04:02:00.166Z,5.87
2019-05-14T04:03:00.710Z,5.93
2019-05-14T04:04:00.140Z,5.97
2019-05-14T04:05:00.269Z,5.97
2019-05-14T04:06:00.153Z,5.94
2019-05-14T04:07:00.188Z,6.05
2019-05-14T04:08:00.306Z,6.09
2019-05-14T04:09:00.738Z,6.11
2019-05-14T04:10:00.108Z,6.09
2019-05-14T04:11:00.085Z,6.06
2019-05-14T04:12:01.211Z,6.00
2019-05-14T04:13:00.087Z,6.05
2019-05-14T04:14:00.400Z,6.13
2019-05-14T04:15:00.037Z,6.18
2019-05-14T04:16:00.360Z,6.12
2019-05-14T04:17:09.227Z,6.15
2019-05-14T04:18:00.964Z,6.15
2019-05-14T04:18:59.973Z,6.15
2019-05-14T04:20:00.256Z,6.18
2019-05-14T04:20:59.976Z,6.12
2019-05-14T04:22:00.128Z,6.11
2019-05-14T04:23:00.190Z,6.19
2019-05-14T04:23:59.912Z,6.09
2019-05-14T04:25:00.096Z,6.19
2019-05-14T04:26:00.834Z,6.32
2019-05-14T04:27:07.407Z,6.38
2019-05-14T04:28:00.871Z,6.34
2019-05-14T04:29:00.628Z,6.28
2019-05-14T04:29:59.843Z,6.32
2019-05-14T04:31:00.019Z,6.38
2019-05-14T04:32:00.358Z,6.43
2019-05-14T04:32:59.826Z,6.45
2019-05-14T04:33:59.809Z,6.40
2019-05-14T04:34:59.843Z,6.40
2019-05-14T04:36:00.397Z,6.40
2019-05-14T04:36:59.774Z,6.52
2019-05-14T04:37:59.787Z,6.55
2019-05-14T04:39:00.749Z,6.45
2019-05-14T04:39:59.773Z,6.47
2019-05-14T04:41:00.122Z,6.34
2019-05-14T04:42:00.110Z,6.34
2019-05-14T04:42:59.709Z,6.27
2019-05-14T04:43:59.733Z,6.32
2019-05-14T04:45:04.962Z,6.25
2019-05-14T04:46:00.681Z,6.15
2019-05-14T04:47:02.068Z,6.16
2019-05-14T04:48:00.679Z,6.18
2019-05-14T04:48:59.639Z,6.19
2019-05-14T04:49:59.627Z,6.15
2019-05-14T04:51:00.619Z,6.16
2019-05-14T04:51:59.874Z,6.09
2019-05-14T04:53:00.072Z,6.27
2019-05-14T04:54:00.036Z,6.28
2019-05-14T04:54:59.767Z,6.30
2019-05-14T04:56:00.236Z,6.30
2019-05-14T04:57:00.119Z,6.38
2019-05-14T04:57:59.577Z,6.37
2019-05-14T04:58:59.826Z,6.50
2019-05-14T05:00:00.007Z,6.50
2019-05-14T05:01:00.812Z,6.49
2019-05-14T05:02:00.202Z,6.56
2019-05-14T05:03:00.173Z,6.53
2019-05-14T05:03:59.495Z,6.60
2019-05-14T05:04:59.699Z,6.57
2019-05-14T05:05:59.459Z,6.63
2019-05-14T05:06:59.581Z,6.64
2019-05-14T05:07:59.862Z,6.65
2019-05-14T05:09:00.202Z,6.68
2019-05-14T05:09:59.580Z,6.79
2019-05-14T05:11:02.087Z,6.70
2019-05-14T05:11:59.965Z,6.65
2019-05-14T05:12:59.370Z,6.68
2019-05-14T05:13:59.550Z,6.71
2019-05-14T05:14:59.382Z,6.68
2019-05-14T05:15:59.718Z,6.73
2019-05-14T05:16:59.680Z,6.75
2019-05-14T05:17:59.355Z,6.73
2019-05-14T05:18:59.687Z,6.78
2019-05-14T05:19:59.512Z,6.85
2019-05-14T05:20:59.302Z,6.82
2019-05-14T05:21:59.292Z,6.83
2019-05-14T05:22:59.292Z,6.79
2019-05-14T05:23:59.296Z,6.81
2019-05-14T05:24:59.237Z,6.88
2019-05-14T05:25:59.226Z,6.92
2019-05-14T05:26:59.254Z,7.00
2019-05-14T05:27:59.917Z,6.92
2019-05-14T05:29:06.339Z,6.97
2019-05-14T05:30:00.209Z,7.00
2019-05-14T05:30:59.156Z,7.01
2019-05-14T05:31:59.553Z,7.07
2019-05-14T05:32:59.793Z,7.11
2019-05-14T05:33:59.144Z,7.19
2019-05-14T05:34:59.124Z,7.15
2019-05-14T05:35:59.553Z,7.18
2019-05-14T05:36:59.424Z,7.16
2019-05-14T05:37:59.181Z,7.19
2019-05-14T05:38:59.480Z,7.13
2019-05-14T05:39:59.086Z,7.19
2019-05-14T05:41:00.271Z,7.16
2019-05-14T05:41:59.098Z,7.18
2019-05-14T05:42:59.090Z,7.28
2019-05-14T05:43:59.133Z,7.25
2019-05-14T05:44:59.037Z,7.33
2019-05-14T05:45:59.344Z,7.36
2019-05-14T05:46:59.633Z,7.40
2019-05-14T05:48:01.714Z,7.43
2019-05-14T05:49:00.607Z,7.55
2019-05-14T05:49:58.975Z,7.42
2019-05-14T05:50:59.324Z,7.47
2019-05-14T05:51:59.382Z,7.54
2019-05-14T05:52:59.024Z,7.54
2019-05-14T05:53:59.016Z,7.52
2019-05-14T05:54:58.933Z,7.61
2019-05-14T05:55:59.425Z,7.62
2019-05-14T05:56:58.920Z,7.69
2019-05-14T05:57:58.908Z,7.68
2019-05-14T05:59:00.651Z,7.76
2019-05-14T05:59:59.084Z,7.71
2019-05-14T06:00:59.340Z,7.80
2019-05-14T06:01:58.925Z,7.83
2019-05-14T06:02:59.164Z,7.77
2019-05-14T06:03:58.827Z,7.86
2019-05-14T06:04:58.828Z,7.80
2019-05-14T06:05:59.379Z,7.84
2019-05-14T06:07:02.399Z,7.99
2019-05-14T06:07:59.120Z,7.94
2019-05-14T06:08:58.799Z,8.05
2019-05-14T06:10:01.564Z,7.99
2019-05-14T06:10:59.315Z,8.09
2019-05-14T06:11:59.370Z,8.05
2019-05-14T06:12:58.731Z,8.09
2019-05-14T06:13:59.052Z,8.10
2019-05-14T06:14:58.690Z,8.13
2019-05-14T06:15:59.306Z,8.17
2019-05-14T06:16:59.202Z,8.23
2019-05-14T06:18:14.429Z,8.26
2019-05-14T06:18:59.676Z,8.24
2019-05-14T06:19:59.131Z,8.31
2019-05-14T06:20:58.800Z,8.35
2019-05-14T06:21:59.625Z,8.39
2019-05-14T06:22:58.925Z,8.34
2019-05-14T06:24:02.758Z,8.47
2019-05-14T06:24:58.831Z,8.52
2019-05-14T06:25:59.771Z,8.56
2019-05-14T06:26:58.841Z,8.60
2019-05-14T06:27:59.010Z,8.71
2019-05-14T06:28:59.875Z,8.71
2019-05-14T06:29:58.550Z,8.74
2019-05-14T06:30:59.120Z,8.81
2019-05-14T06:31:58.970Z,8.72
2019-05-14T06:32:59.395Z,8.86
2019-05-14T06:33:59.184Z,8.85
2019-05-14T06:34:59.333Z,8.90
2019-05-14T06:35:59.106Z,8.92
2019-05-14T06:36:59.207Z,9.04
2019-05-14T06:37:58.442Z,9.03
2019-05-14T06:38:58.769Z,9.09
2019-05-14T06:39:58.641Z,9.06
2019-05-14T06:40:59.313Z,9.14
2019-05-14T06:41:58.730Z,9.22
2019-05-14T06:42:59.142Z,9.19
2019-05-14T06:43:59.154Z,9.30
2019-05-14T06:44:58.712Z,9.29
2019-05-14T06:45:58.749Z,9.18
2019-05-14T06:46:59.132Z,9.29
2019-05-14T06:47:59.368Z,9.40
2019-05-14T06:48:59.051Z,9.40
2019-05-14T06:49:59.299Z,9.54
2019-05-14T06:50:58.529Z,9.52
2019-05-14T06:51:59.294Z,9.59
2019-05-14T06:52:58.271Z,9.66
2019-05-14T06:53:58.762Z,9.63
2019-05-14T06:54:58.395Z,9.69
2019-05-14T06:55:58.818Z,9.75
2019-05-14T06:56:58.446Z,9.85
2019-05-14T06:57:58.581Z,9.75
2019-05-14T06:58:58.633Z,9.80
2019-05-14T06:59:58.871Z,9.83
2019-05-14T07:00:58.670Z,9.84
2019-05-14T07:01:58.235Z,9.87
2019-05-14T07:02:58.417Z,9.96
2019-05-14T07:03:58.224Z,9.91
2019-05-14T07:04:58.953Z,9.93
2019-05-14T07:05:59.603Z,9.90
2019-05-14T07:06:59.129Z,9.98
2019-05-14T07:07:59.752Z,10.01
2019-05-14T07:09:00.066Z,10.02
2019-05-14T07:09:58.335Z,10.02
2019-05-14T07:10:59.274Z,10.03
2019-05-14T07:11:58.589Z,10.14
2019-05-14T07:12:59.186Z,10.20
2019-05-14T07:13:58.234Z,10.20
2019-05-14T07:14:58.529Z,10.24
2019-05-14T07:15:58.493Z,10.27
2019-05-14T07:16:58.777Z,10.30
2019-05-14T07:17:58.420Z,10.35
2019-05-14T07:18:59.070Z,10.43
2019-05-14T07:19:58.377Z,10.42
2019-05-14T07:20:58.835Z,10.35
2019-05-14T07:21:58.400Z,10.42
2019-05-14T07:22:58.643Z,10.41
2019-05-14T07:23:59.346Z,10.41
2019-05-14T07:24:58.736Z,10.45
2019-05-14T07:25:58.929Z,10.46
2019-05-14T07:26:58.581Z,10.61
2019-05-14T07:27:58.289Z,10.62
2019-05-14T07:28:59.016Z,10.62
2019-05-14T07:29:58.920Z,10.54
2019-05-14T07:30:59.295Z,10.65
2019-05-14T07:31:58.389Z,10.62
2019-05-14T07:32:58.844Z,10.67
2019-05-14T07:33:58.306Z,10.68
2019-05-14T07:34:59.616Z,10.73
2019-05-14T07:35:59.343Z,10.78
2019-05-14T07:36:58.680Z,10.70
2019-05-14T07:37:59.114Z,10.75
2019-05-14T07:39:00.295Z,10.75
2019-05-14T07:39:58.074Z,10.79
2019-05-14T07:40:58.532Z,10.76
2019-05-14T07:41:59.124Z,10.79
2019-05-14T07:42:58.349Z,10.90
2019-05-14T07:43:58.607Z,10.87
2019-05-14T07:44:58.925Z,10.83
2019-05-14T07:45:58.265Z,10.91
2019-05-14T07:46:59.002Z,10.94
2019-05-14T07:47:58.329Z,10.91
2019-05-14T07:49:06.391Z,10.97
2019-05-14T07:49:58.657Z,10.93
2019-05-14T07:51:00.039Z,10.94
2019-05-14T07:51:58.760Z,10.98
2019-05-14T07:52:58.675Z,10.95
2019-05-14T07:53:58.065Z,11.00
2019-05-14T07:54:58.689Z,11.08
2019-05-14T07:55:59.150Z,11.13
2019-05-14T07:56:59.040Z,11.18
2019-05-14T07:57:58.744Z,11.20
2019-05-14T07:58:58.220Z,11.23
2019-05-14T07:59:58.877Z,11.22
2019-05-14T08:00:58.803Z,11.37
2019-05-14T08:01:58.623Z,11.41
2019-05-14T08:02:58.154Z,11.48
2019-05-14T08:04:00.122Z,11.43
2019-05-14T08:04:58.039Z,11.49
2019-05-14T08:05:58.852Z,11.46
2019-05-14T08:06:58.217Z,11.48
2019-05-14T08:07:59.996Z,11.58
2019-05-14T08:08:59.201Z,11.62
2019-05-14T08:09:58.331Z,11.55
2019-05-14T08:10:59.169Z,11.64
2019-05-14T08:11:58.765Z,11.70
2019-05-14T08:12:58.857Z,11.61
2019-05-14T08:13:58.555Z,11.62
2019-05-14T08:15:14.261Z,11.70
2019-05-14T08:15:58.560Z,11.66
2019-05-14T08:16:59.534Z,11.73
2019-05-14T08:17:58.534Z,11.67
2019-05-14T08:18:57.343Z,11.71
2019-05-14T08:19:58.324Z,11.76
2019-05-14T08:20:59.267Z,11.76
2019-05-14T08:21:58.714Z,11.87
2019-05-14T08:22:58.257Z,11.97
2019-05-14T08:23:59.263Z,11.91
2019-05-14T08:24:58.095Z,11.89
2019-05-14T08:25:58.743Z,12.03
2019-05-14T08:26:57.909Z,12.04
2019-05-14T08:27:58.651Z,12.13
2019-05-14T08:29:00.011Z,12.15
2019-05-14T08:29:58.948Z,12.23
2019-05-14T08:30:58.425Z,12.28
2019-05-14T08:31:58.214Z,12.26
2019-05-14T08:32:58.345Z,12.18
2019-05-14T08:33:59.167Z,12.14
2019-05-14T08:34:58.437Z,12.14
2019-05-14T08:35:58.241Z,12.15
2019-05-14T08:36:58.852Z,12.21
2019-05-14T08:38:05.516Z,12.33
2019-05-14T08:38:58.260Z,12.40
2019-05-14T08:39:58.829Z,12.47
2019-05-14T08:40:58.939Z,12.54
2019-05-14T08:42:03.603Z,12.51
2019-05-14T08:42:58.427Z,12.55
2019-05-14T08:43:59.394Z,12.63
2019-05-14T08:44:59.177Z,12.63
2019-05-14T08:45:58.778Z,12.48
2019-05-14T08:46:59.016Z,12.58
2019-05-14T08:47:58.654Z,12.53
2019-05-14T08:48:58.642Z,12.48
2019-05-14T08:49:59.656Z,12.48
2019-05-14T08:50:58.766Z,12.50
2019-05-14T08:51:59.382Z,12.47
2019-05-14T08:52:58.313Z,12.51
2019-05-14T08:53:59.173Z,12.55
2019-05-14T08:55:09.101Z,12.48
2019-05-14T08:55:58.934Z,12.53
2019-05-14T08:56:58.411Z,12.59
2019-05-14T08:57:59.210Z,12.62
2019-05-14T08:58:58.940Z,12.69
2019-05-14T08:59:59.338Z,12.69
2019-05-14T09:00:58.779Z,12.71
2019-05-14T09:02:05.529Z,12.76
2019-05-14T09:02:59.073Z,12.73
2019-05-14T09:03:59.321Z,12.69
2019-05-14T09:05:02.854Z,12.72
2019-05-14T09:06:00.665Z,12.77
2019-05-14T09:06:59.492Z,12.77
2019-05-14T09:07:58.165Z,12.80
2019-05-14T09:08:59.189Z,12.79
2019-05-14T09:09:59.888Z,12.81
2019-05-14T09:10:59.013Z,12.80
2019-05-14T09:11:59.723Z,12.79
2019-05-14T09:12:58.339Z,12.69
2019-05-14T09:13:59.425Z,12.80
2019-05-14T09:14:58.840Z,12.84
2019-05-14T09:15:58.269Z,12.84
2019-05-14T09:16:59.715Z,12.83
2019-05-14T09:17:58.734Z,12.86
2019-05-14T09:18:58.189Z,12.80
2019-05-14T09:20:05.699Z,12.84
2019-05-14T09:20:58.207Z,12.83
2019-05-14T09:21:58.933Z,12.84
2019-05-14T09:22:59.187Z,12.87
2019-05-14T09:23:58.729Z,12.90
2019-05-14T09:24:59.896Z,12.87
2019-05-14T09:25:58.844Z,12.96
2019-05-14T09:26:59.006Z,13.02
2019-05-14T09:27:59.476Z,13.21
2019-05-14T09:28:58.536Z,13.17
2019-05-14T09:29:58.810Z,13.29
2019-05-14T09:30:59.206Z,13.36
2019-05-14T09:31:58.760Z,13.38
2019-05-14T09:32:59.152Z,13.42
2019-05-14T09:33:58.489Z,13.26
2019-05-14T09:34:58.801Z,13.30
2019-05-14T09:36:13.724Z,13.36
2019-05-14T09:36:59.408Z,13.14
2019-05-14T09:37:59.110Z,13.19
2019-05-14T09:38:58.391Z,13.13
2019-05-14T09:39:58.418Z,13.06
2019-05-14T09:41:08.246Z,13.04
2019-05-14T09:41:58.122Z,13.08
2019-05-14T09:42:58.681Z,13.04
2019-05-14T09:43:58.596Z,12.99
2019-05-14T09:44:56.361Z,13.04
2019-05-14T09:45:58.544Z,13.08
2019-05-14T09:46:56.369Z,13.02
2019-05-14T09:47:58.390Z,13.04
2019-05-14T09:48:56.309Z,13.08
2019-05-14T09:49:59.718Z,13.06
2019-05-14T09:50:58.560Z,13.17
2019-05-14T09:51:58.217Z,13.13
2019-05-14T09:52:59.106Z,13.19
2019-05-14T09:53:56.258Z,13.27
2019-05-14T09:54:58.427Z,13.29
2019-05-14T09:55:58.224Z,13.21
2019-05-14T09:56:58.950Z,13.27
2019-05-14T09:57:58.521Z,13.29
2019-05-14T09:58:58.510Z,13.13
2019-05-14T09:59:58.466Z,13.20
2019-05-14T10:00:58.833Z,13.21
2019-05-14T10:01:58.391Z,13.24
2019-05-14T10:02:59.485Z,13.27
2019-05-14T10:03:58.956Z,13.20
2019-05-14T10:04:56.164Z,13.30
2019-05-14T10:05:58.709Z,13.29
2019-05-14T10:06:56.106Z,13.26
2019-05-14T10:07:56.090Z,13.23
2019-05-14T10:08:56.074Z,13.24
2019-05-14T10:09:56.126Z,13.27
2019-05-14T10:10:56.062Z,13.30
2019-05-14T10:11:57.990Z,13.30
2019-05-14T10:12:57.293Z,13.36
2019-05-14T10:13:56.030Z,13.20
2019-05-14T10:14:56.022Z,13.38
2019-05-14T10:15:56.033Z,13.38
2019-05-14T10:16:58.225Z,13.40
2019-05-14T10:17:59.842Z,13.45
2019-05-14T10:18:55.951Z,13.45
2019-05-14T10:19:55.955Z,13.47
2019-05-14T10:20:56.005Z,13.49
2019-05-14T10:21:55.933Z,13.43
2019-05-14T10:22:55.926Z,13.45
2019-05-14T10:23:58.048Z,13.53
2019-05-14T10:24:58.143Z,13.51
2019-05-14T10:25:58.014Z,13.57
2019-05-14T10:26:58.556Z,13.61
2019-05-14T10:27:55.903Z,13.68
2019-05-14T10:28:55.860Z,13.76
2019-05-14T10:29:55.833Z,13.82
2019-05-14T10:30:55.862Z,13.76
2019-05-14T10:31:55.893Z,13.76
2019-05-14T10:32:55.881Z,13.78
2019-05-14T10:33:55.824Z,13.67
2019-05-14T10:34:55.833Z,13.68
2019-05-14T10:35:55.829Z,13.72
2019-05-14T10:36:55.804Z,13.82
2019-05-14T10:37:55.794Z,13.75
2019-05-14T10:38:58.612Z,13.83
2019-05-14T10:39:58.442Z,13.78
2019-05-14T10:40:58.659Z,13.76
2019-05-14T10:41:55.790Z,13.78
2019-05-14T10:42:55.728Z,13.76
2019-05-14T10:43:58.603Z,13.71
2019-05-14T10:44:58.505Z,13.72
2019-05-14T10:45:57.891Z,13.79
2019-05-14T10:46:58.140Z,13.83
2019-05-14T10:47:55.643Z,13.96
2019-05-14T10:48:55.642Z,13.91
2019-05-14T10:49:58.274Z,13.94
2019-05-14T10:51:02.361Z,13.97
2019-05-14T10:51:58.559Z,14.00
2019-05-14T10:52:55.626Z,13.98
2019-05-14T10:53:55.583Z,14.00
2019-05-14T10:54:56.305Z,14.03
2019-05-14T10:55:55.557Z,14.04
2019-05-14T10:56:55.566Z,14.11
2019-05-14T10:57:58.274Z,14.16
2019-05-14T10:58:55.528Z,14.13
2019-05-14T10:59:55.579Z,14.16
2019-05-14T11:00:55.500Z,14.15
2019-05-14T11:01:55.541Z,14.11
2019-05-14T11:02:55.473Z,14.11
2019-05-14T11:03:55.465Z,14.11
2019-05-14T11:04:58.549Z,14.22
2019-05-14T11:05:55.424Z,14.18
2019-05-14T11:06:55.500Z,14.11
2019-05-14T11:07:55.442Z,14.09
2019-05-14T11:08:55.463Z,14.13
2019-05-14T11:09:55.425Z,14.09
2019-05-14T11:10:55.389Z,14.15
2019-05-14T11:11:55.357Z,14.15
2019-05-14T11:12:55.416Z,14.15
2019-05-14T11:13:55.357Z,14.09
2019-05-14T11:14:55.368Z,14.13
2019-05-14T11:15:55.312Z,14.11
2019-05-14T11:16:55.332Z,14.13
2019-05-14T11:17:55.369Z,14.13
2019-05-14T11:18:57.577Z,14.22
2019-05-14T11:19:55.268Z,14.16
2019-05-14T11:20:55.312Z,14.13
2019-05-14T11:21:57.888Z,14.23
2019-05-14T11:22:55.272Z,14.30
2019-05-14T11:23:55.311Z,14.21
2019-05-14T11:24:55.233Z,14.26
2019-05-14T11:25:58.253Z,14.31
2019-05-14T11:26:55.204Z,14.27
2019-05-14T11:27:55.178Z,14.41
2019-05-14T11:28:55.188Z,14.38
2019-05-14T11:29:55.203Z,14.33
2019-05-14T11:30:55.195Z,14.37
2019-05-14T11:31:55.133Z,14.38
2019-05-14T11:32:55.191Z,14.41
2019-05-14T11:33:55.140Z,14.40
2019-05-14T11:34:55.110Z,14.36
2019-05-14T11:35:55.116Z,14.34
2019-05-14T11:36:55.093Z,14.28
2019-05-14T11:37:55.092Z,14.26
2019-05-14T11:38:55.112Z,14.26
2019-05-14T11:39:55.067Z,14.19
2019-05-14T11:40:55.064Z,14.30
2019-05-14T11:41:55.044Z,14.22
2019-05-14T11:42:55.059Z,14.13
2019-05-14T11:43:54.998Z,14.01
2019-05-14T11:44:55.006Z,14.03
2019-05-14T11:45:54.998Z,14.03
2019-05-14T11:47:02.388Z,13.97
2019-05-14T11:47:55.068Z,13.97
2019-05-14T11:48:54.967Z,14.09
2019-05-14T11:49:54.972Z,14.16
2019-05-14T11:50:54.958Z,14.13
2019-05-14T11:52:03.779Z,14.12
2019-05-14T11:52:58.342Z,14.12
2019-05-14T11:53:54.900Z,14.16
2019-05-14T11:54:54.884Z,14.28
2019-05-14T11:55:54.910Z,14.26
2019-05-14T11:56:54.873Z,14.26
2019-05-14T11:57:54.882Z,14.21
2019-05-14T11:58:54.859Z,14.22
2019-05-14T11:59:54.878Z,14.23
2019-05-14T12:00:54.842Z,14.23
2019-05-14T12:01:55.201Z,14.36
2019-05-14T12:02:54.897Z,14.49
2019-05-14T12:03:55.468Z,14.48
2019-05-14T12:04:54.806Z,14.63
2019-05-14T12:05:54.783Z,14.55
2019-05-14T12:06:54.787Z,14.67
2019-05-14T12:07:54.806Z,14.67
2019-05-14T12:08:54.801Z,14.69
2019-05-14T12:09:54.767Z,14.61
2019-05-14T12:10:54.719Z,14.63
2019-05-14T12:11:54.730Z,14.69
2019-05-14T12:12:54.747Z,14.71
2019-05-14T12:13:54.697Z,14.67
2019-05-14T12:14:54.712Z,14.56
2019-05-14T12:15:54.695Z,14.64
2019-05-14T12:16:54.657Z,14.61
2019-05-14T12:17:54.669Z,14.63
2019-05-14T12:18:54.641Z,14.63
2019-05-14T12:19:54.631Z,14.64
2019-05-14T12:20:54.592Z,14.59
2019-05-14T12:22:05.852Z,14.67
2019-05-14T12:22:55.612Z,14.70
2019-05-14T12:23:54.570Z,14.61
2019-05-14T12:24:58.466Z,14.64
2019-05-14T12:25:54.618Z,14.55
2019-05-14T12:26:54.575Z,14.67
2019-05-14T12:27:54.555Z,14.73
2019-05-14T12:28:56.169Z,14.77
2019-05-14T12:29:54.515Z,14.78
2019-05-14T12:30:54.611Z,14.74
2019-05-14T12:31:54.472Z,14.74
2019-05-14T12:32:54.532Z,14.71
2019-05-14T12:33:54.552Z,14.67
2019-05-14T12:34:54.486Z,14.70
2019-05-14T12:35:54.450Z,14.67
2019-05-14T12:36:54.436Z,14.73
2019-05-14T12:37:54.457Z,14.74
2019-05-14T12:38:58.967Z,14.73
2019-05-14T12:39:54.547Z,14.82
2019-05-14T12:40:54.384Z,14.92
2019-05-14T12:41:54.386Z,14.83
2019-05-14T12:42:54.365Z,14.79
2019-05-14T12:43:54.584Z,14.79
2019-05-14T12:44:54.381Z,14.78
2019-05-14T12:45:54.367Z,14.70
2019-05-14T12:46:54.383Z,14.70
2019-05-14T12:47:54.297Z,14.61
2019-05-14T12:48:54.307Z,14.67
2019-05-14T12:49:54.293Z,14.74
2019-05-14T12:50:54.258Z,14.79
2019-05-14T12:51:54.296Z,14.83
2019-05-14T12:52:54.520Z,14.89
2019-05-14T12:53:54.329Z,14.90
2019-05-14T12:54:54.252Z,14.99
2019-05-14T12:55:54.206Z,15.10
2019-05-14T12:56:54.228Z,15.05
2019-05-14T12:57:54.214Z,15.11
2019-05-14T12:58:54.202Z,15.10
2019-05-14T12:59:54.156Z,15.22
2019-05-14T13:00:54.163Z,15.22
2019-05-14T13:01:54.138Z,15.17
2019-05-14T13:02:54.143Z,15.14
2019-05-14T13:03:54.140Z,15.11
2019-05-14T13:04:54.165Z,15.11
2019-05-14T13:05:54.105Z,15.03
2019-05-14T13:06:54.102Z,14.99
2019-05-14T13:07:54.087Z,15.03